Vancouver, Washington
Current Conditions -  °F | °C
As of 4:53 AM on Friday 19 Dec 2014 (Local Time) from KVUO Reporting Station
Overcast Overcast  
Wind Chill: 42°   Ceiling: 5500
Heat Index: 44°   Visibility: 10mi
Dew Point: 42°   Wind: 5mph
Humidity: 93%   Direction: 120°ESE
Pressure: 29.91"   Gusts: NA
Location:  45.63°N, 122.67°W
Report Text: KVUO 191253Z AUTO 12004KT 10SM BKN055 BKN065 OVC110 07/06 A2991 RMK AO2 RAB07E22 SLP129 P0001 T00670056
Loading
Personal Weather Stations






























Interactive Weather Map New forecast layout! Learn more

10-Day Weather Forecast

Advertisements
Track Severe Weather on mobile